CheckWX is a tool to help pilots better visualize weather data.  It is not intended as a substitute for an official pre-flight weather briefing.

02:23:56 UTC

KMCW METAR
Mason City Municipal Airport
Mason City, Iowa, USA
Current

31 mins ago

KMCW 200153Z AUTO 13006KT 10SM CLR 20/17 A3001 RMK AO2 SLP153 T02000172
Observed
Aug-20 @ 01:53 UTC
Wind
  • 130° at 6 KTS
Visibility
10 SM
Flight Rules
VFR
Cloud Levels
  • Clear skies
Temperature
20°C / 68°F
Dewpoint
17°C / 63°F
Humidity
83%
Altimeter
30.01" Hg
Pressure
1016.22 hPa
Previous

2 hours ago

KMCW 200053Z AUTO 14005KT 10SM CLR 22/18 A3000 RMK AO2 SLP152 T02170178
Observed
Aug-20 @ 00:53 UTC
Wind
  • 140° at 5 KTS
Visibility
10 SM
Flight Rules
VFR
Cloud Levels
  • Clear skies
Temperature
22°C / 72°F
Dewpoint
18°C / 64°F
Humidity
78%
Altimeter
30" Hg
Pressure
1015.92 hPa
Previous

3 hours ago

KMCW 192353Z AUTO 14006KT 10SM CLR 25/17 A3001 RMK AO2 SLP152 T02500172 10267 20239 58009
Observed
Aug-19 @ 23:53 UTC
Wind
  • 140° at 6 KTS
Visibility
10 SM
Flight Rules
VFR
Cloud Levels
  • Clear skies
Temperature
25°C / 77°F
Dewpoint
17°C / 63°F
Humidity
61%
Altimeter
30.01" Hg
Pressure
1016.22 hPa